Time;durP1;ratioP1;P1;durP2;ratioP2;P2;SDS_P1;SDS_P2;PMS_P1;PMS_P2;Temp;Humidity;BMP_temperature;BMP_pressure;BME280_temperature;BME280_humidity;BME280_pressure;Samples;Min_cycle;Max_cycle;Signal;HPM_P1;HPM_P2
2023/07/02 00:00:41;;;;;;;;;28.40;25.00;;;;;24.28;100.00;97767.66;6062935;28;96610;-61
2023/07/02 00:03:44;;;;;;;;;31.50;26.50;;;;;24.21;100.00;97765.44;6062017;28;96311;-61
2023/07/02 00:06:49;;;;;;;;;29.00;26.50;;;;;24.12;100.00;97762.72;6065309;28;96258;-58
2023/07/02 00:09:53;;;;;;;;;26.00;24.00;;;;;24.14;100.00;97762.41;6074398;28;96373;-59
2023/07/02 00:12:56;;;;;;;;;28.00;27.00;;;;;24.09;100.00;97765.34;6087330;28;96136;-61
2023/07/02 00:15:59;;;;;;;;;29.00;26.00;;;;;24.06;100.00;97771.53;6071310;28;96661;-61
2023/07/02 00:19:02;;;;;;;;;28.60;27.00;;;;;24.04;100.00;97769.09;6069480;28;97736;-61
2023/07/02 00:22:07;;;;;;;;;28.40;27.00;;;;;24.03;100.00;97777.72;6072368;28;96753;-61
2023/07/02 00:25:10;;;;;;;;;31.00;29.40;;;;;24.02;100.00;97774.16;6060974;28;96510;-61
2023/07/02 00:28:13;;;;;;;;;33.00;28.40;;;;;24.00;100.00;97775.59;6062040;28;96374;-61
2023/07/02 00:31:16;;;;;;;;;30.40;27.00;;;;;23.97;100.00;97765.28;6060985;28;96424;-61
2023/07/02 00:34:20;;;;;;;;;25.60;25.00;;;;;23.97;100.00;97757.03;6044972;28;96563;-61
2023/07/02 00:37:24;;;;;;;;;29.20;28.20;;;;;23.92;100.00;97760.78;6061729;28;98870;-60
2023/07/02 00:40:28;;;;;;;;;28.00;25.00;;;;;23.83;100.00;97750.97;6045476;28;96671;-61
2023/07/02 00:43:31;;;;;;;;;32.40;28.00;;;;;23.82;100.00;97754.88;6062026;28;96134;-61
2023/07/02 00:46:35;;;;;;;;;28.00;26.00;;;;;23.80;100.00;97760.69;6060558;28;96508;-61
2023/07/02 00:49:38;;;;;;;;;28.80;26.60;;;;;23.80;100.00;97746.94;6060804;28;96350;-61
2023/07/02 00:52:42;;;;;;;;;27.50;25.50;;;;;23.80;100.00;97748.91;6061689;28;96327;-60
2023/07/02 00:55:46;;;;;;;;;23.20;22.00;;;;;23.78;100.00;97743.72;6061800;28;96762;-61
2023/07/02 00:58:51;;;;;;;;;25.60;24.60;;;;;23.77;100.00;97752.31;6062740;28;96678;-61
2023/07/02 01:01:56;;;;;;;;;24.75;24.00;;;;;23.74;100.00;97751.88;6073394;28;96325;-61
2023/07/02 01:05:00;;;;;;;;;27.80;23.80;;;;;23.74;100.00;97746.34;6066550;28;96035;-61
2023/07/02 01:08:06;;;;;;;;;25.40;23.00;;;;;23.73;100.00;97747.50;6065493;28;97024;-60
2023/07/02 01:11:09;;;;;;;;;25.50;23.75;;;;;23.70;100.00;97745.41;6067003;28;96440;-61
2023/07/02 01:14:16;;;;;;;;;25.00;23.25;;;;;23.77;100.00;97752.31;6065812;28;96932;-61
2023/07/02 01:17:20;;;;;;;;;27.00;25.80;;;;;23.77;100.00;97741.31;6075557;28;96390;-61
2023/07/02 01:20:30;;;;;;;;;27.40;24.40;;;;;23.75;100.00;97744.38;6077471;28;96617;-61
2023/07/02 01:23:34;;;;;;;;;26.00;23.00;;;;;23.70;100.00;97730.84;6066190;28;96919;-61
2023/07/02 01:26:39;;;;;;;;;23.00;21.60;;;;;23.81;100.00;97748.56;6049827;28;96570;-61
2023/07/02 01:29:44;;;;;;;;;22.40;21.40;;;;;23.72;100.00;97729.38;6065028;28;97016;-61
2023/07/02 01:32:48;;;;;;;;;22.00;20.00;;;;;23.78;100.00;97745.69;6065817;28;96134;-61
2023/07/02 01:35:53;;;;;;;;;21.20;20.00;;;;;23.81;100.00;97740.31;6049635;28;96460;-61
2023/07/02 01:38:57;;;;;;;;;25.00;22.75;;;;;23.85;100.00;97734.94;6064513;28;96330;-61
2023/07/02 01:42:09;;;;;;;;;26.00;23.00;;;;;23.86;100.00;97742.84;6050046;28;97076;-61
2023/07/02 01:45:13;;;;;;;;;22.00;20.00;;;;;23.88;100.00;97743.34;6064685;28;96396;-61
2023/07/02 01:48:16;;;;;;;;;25.00;22.40;;;;;23.92;100.00;97743.47;6048526;28;98907;-58
2023/07/02 01:51:20;;;;;;;;;21.60;20.00;;;;;23.88;100.00;97726.00;6048489;28;97052;-58
2023/07/02 01:54:26;;;;;;;;;19.00;18.60;;;;;23.94;100.00;97735.69;6064464;28;96342;-59
2023/07/02 01:57:30;;;;;;;;;22.00;20.00;;;;;23.96;100.00;97728.69;6066149;28;96387;-61
2023/07/02 02:00:33;;;;;;;;;24.80;24.00;;;;;23.91;100.00;97717.88;6065075;28;96359;-60
2023/07/02 02:03:37;;;;;;;;;21.33;20.33;;;;;23.94;100.00;97725.47;6047155;28;98645;-61
2023/07/02 02:06:42;;;;;;;;;24.50;23.00;;;;;23.94;100.00;97724.69;6062833;28;96907;-61
2023/07/02 02:09:45;;;;;;;;;21.60;21.00;;;;;23.91;100.00;97731.63;6045431;28;97158;-61
2023/07/02 02:12:49;;;;;;;;;21.60;19.60;;;;;23.94;100.00;97730.19;6047476;28;98981;-61
2023/07/02 02:15:52;;;;;;;;;21.00;19.25;;;;;23.96;100.00;97719.63;6066208;28;96301;-61
2023/07/02 02:18:55;;;;;;;;;20.20;19.20;;;;;23.94;100.00;97721.91;6047962;28;97069;-59
2023/07/02 02:22:00;;;;;;;;;21.00;19.00;;;;;23.99;100.00;97725.28;6060852;28;96393;-58
2023/07/02 02:25:04;;;;;;;;;23.25;20.75;;;;;23.98;100.00;97722.84;6058967;28;96620;-58
2023/07/02 02:28:07;;;;;;;;;22.00;19.50;;;;;23.93;100.00;97723.06;6061087;28;96835;-58
2023/07/02 02:31:10;;;;;;;;;23.60;22.00;;;;;23.96;100.00;97723.19;6044382;28;97341;-58
2023/07/02 02:34:13;;;;;;;;;19.50;19.00;;;;;23.93;100.00;97721.09;6059679;28;96389;-59
2023/07/02 02:37:19;;;;;;;;;26.00;23.00;;;;;23.93;100.00;97718.34;6062253;28;96416;-59
2023/07/02 02:40:23;;;;;;;;;21.20;20.00;;;;;24.00;100.00;97726.06;6048882;28;96452;-58
2023/07/02 02:43:26;;;;;;;;;23.00;21.00;;;;;24.00;100.00;97717.78;6063703;28;96278;-58
2023/07/02 02:46:32;;;;;;;;;23.60;21.60;;;;;23.95;100.00;97724.31;6050238;28;96281;-58
2023/07/02 02:49:38;;;;;;;;;23.50;20.50;;;;;23.99;100.00;97729.97;6065845;28;96370;-58
2023/07/02 02:52:43;;;;;;;;;23.00;21.60;;;;;24.02;100.00;97721.84;6066129;28;96198;-58
2023/07/02 02:55:46;;;;;;;;;22.60;21.60;;;;;24.06;100.00;97724.72;6048227;28;98493;-61
2023/07/02 02:58:49;;;;;;;;;21.50;20.50;;;;;24.05;100.00;97718.41;6066277;28;96280;-59
2023/07/02 03:01:52;;;;;;;;;19.00;18.00;;;;;24.09;100.00;97721.31;6048506;28;98416;-61
2023/07/02 03:04:56;;;;;;;;;19.50;18.00;;;;;24.09;100.00;97719.31;6064124;28;96451;-61
2023/07/02 03:08:01;;;;;;;;;20.60;19.00;;;;;24.13;100.00;97714.78;6064899;28;96610;-61
2023/07/02 03:11:04;;;;;;;;;22.20;19.20;;;;;24.15;100.00;97712.47;6041874;28;97329;-61
2023/07/02 03:14:07;;;;;;;;;21.00;19.00;;;;;24.15;100.00;97701.47;6060915;28;96463;-62
2023/07/02 03:17:10;;;;;;;;;21.00;18.00;;;;;24.09;100.00;97705.56;6065446;28;96661;-61
2023/07/02 03:20:14;;;;;;;;;18.60;17.60;;;;;24.06;100.00;97703.50;6064028;28;96382;-58
2023/07/02 03:23:18;;;;;;;;;21.00;19.00;;;;;24.13;100.00;97712.03;6064104;28;96474;-59
2023/07/02 03:26:22;;;;;;;;;22.80;19.00;;;;;24.16;100.00;97699.53;6063079;28;96507;-58
2023/07/02 03:29:26;;;;;;;;;18.00;17.60;;;;;24.17;100.00;97704.72;6080236;28;96399;-61
2023/07/02 03:32:29;;;;;;;;;20.60;19.40;;;;;24.20;100.00;97705.19;6065416;28;99245;-61
2023/07/02 03:35:32;;;;;;;;;17.00;17.00;;;;;24.24;100.00;97697.88;6065737;28;96437;-61
2023/07/02 03:38:36;;;;;;;;;19.00;16.33;;;;;24.27;100.00;97697.19;6048499;28;96333;-61
2023/07/02 03:41:39;;;;;;;;;19.00;18.00;;;;;24.23;100.00;97688.00;6064733;28;97557;-61
2023/07/02 03:44:42;;;;;;;;;19.40;18.40;;;;;24.31;100.00;97701.66;6064072;28;96344;-59
2023/07/02 03:47:46;;;;;;;;;21.00;19.00;;;;;24.32;100.00;97705.22;6065139;28;96628;-58
2023/07/02 03:50:49;;;;;;;;;21.20;19.00;;;;;24.31;100.00;97703.63;6064841;28;96205;-59
2023/07/02 03:53:53;;;;;;;;;18.00;16.20;;;;;24.32;100.00;97706.03;6063184;28;96579;-59
2023/07/02 03:56:57;;;;;;;;;20.00;19.75;;;;;24.33;100.00;97699.38;6064866;28;97743;-59
2023/07/02 04:00:00;;;;;;;;;22.80;20.00;;;;;24.39;100.00;97713.72;6063530;28;96919;-58
2023/07/02 04:03:04;;;;;;;;;20.75;19.75;;;;;24.42;100.00;97715.81;6061559;28;99325;-59
2023/07/02 04:06:07;;;;;;;;;18.00;17.00;;;;;24.50;100.00;97710.22;6063764;28;96316;-59
2023/07/02 04:09:11;;;;;;;;;21.00;19.50;;;;;24.55;100.00;97709.19;6065449;28;96563;-58
2023/07/02 04:12:15;;;;;;;;;22.00;18.80;;;;;24.64;100.00;97714.59;6061101;28;98622;-58
2023/07/02 04:15:18;;;;;;;;;19.60;17.60;;;;;24.57;100.00;97718.72;6064944;28;96313;-58
2023/07/02 04:18:21;;;;;;;;;23.00;21.00;;;;;24.60;100.00;97720.78;6047317;28;96532;-58
2023/07/02 04:21:24;;;;;;;;;23.00;21.40;;;;;24.67;100.00;97724.94;6060637;28;97188;-59
2023/07/02 04:24:29;;;;;;;;;21.00;20.00;;;;;24.71;100.00;97720.34;6060242;28;96929;-58
2023/07/02 04:27:32;;;;;;;;;19.00;18.00;;;;;24.71;100.00;97731.38;6061154;28;96412;-58
2023/07/02 04:30:52;;;;;;;;;20.25;18.00;;;;;24.78;100.00;97724.16;6057941;28;96181;-58
2023/07/02 04:33:56;;;;;;;;;23.00;21.00;;;;;24.81;100.00;97719.91;6042424;28;98857;-58
2023/07/02 04:36:59;;;;;;;;;20.00;17.67;;;;;24.87;100.00;97730.41;6061183;28;96311;-58
2023/07/02 04:40:06;;;;;;;;;17.00;16.50;;;;;24.97;100.00;97732.69;6059489;28;96321;-58
2023/07/02 04:43:09;;;;;;;;;19.00;18.00;;;;;24.99;100.00;97729.59;6044672;28;97085;-58
2023/07/02 04:46:13;;;;;;;;;20.00;18.00;;;;;25.07;100.00;97728.69;6061658;28;96521;-58
2023/07/02 04:49:16;;;;;;;;;20.60;18.60;;;;;25.18;100.00;97731.78;6043993;28;96654;-61
2023/07/02 04:52:19;;;;;;;;;18.40;17.00;;;;;25.29;100.00;97732.94;6059570;28;97359;-61
2023/07/02 04:55:24;;;;;;;;;18.20;17.20;;;;;25.38;100.00;97744.66;6061645;28;96405;-61
2023/07/02 04:58:27;;;;;;;;;19.00;18.60;;;;;25.48;100.00;97738.69;6060840;28;98467;-61
2023/07/02 05:01:31;;;;;;;;;20.75;18.75;;;;;25.61;100.00;97732.00;6060572;28;97075;-61
2023/07/02 05:04:34;;;;;;;;;21.75;18.75;;;;;25.70;100.00;97734.66;6048150;28;97364;-61
2023/07/02 05:07:37;;;;;;;;;21.00;20.00;;;;;25.78;100.00;97742.81;6064936;28;96302;-61
2023/07/02 05:10:42;;;;;;;;;22.00;20.00;;;;;25.92;100.00;97736.91;6061054;28;96688;-61
2023/07/02 05:13:45;;;;;;;;;19.20;18.00;;;;;25.98;100.00;97742.97;6063520;28;96308;-61
2023/07/02 05:16:48;;;;;;;;;18.80;17.80;;;;;26.11;100.00;97745.34;6065412;28;96350;-61
2023/07/02 05:19:51;;;;;;;;;19.75;19.00;;;;;26.19;100.00;97743.59;6047579;28;96722;-59
2023/07/02 05:22:54;;;;;;;;;19.50;17.50;;;;;26.24;100.00;97748.91;6064730;28;96489;-58
2023/07/02 05:25:59;;;;;;;;;18.00;16.50;;;;;26.27;100.00;97748.19;5992943;28;1672022;-58
2023/07/02 05:29:02;;;;;;;;;19.50;18.50;;;;;26.32;100.00;97755.44;6067528;28;96409;-58
2023/07/02 05:32:06;;;;;;;;;18.00;17.00;;;;;26.45;100.00;97752.25;6066834;28;96925;-58
2023/07/02 05:35:10;;;;;;;;;15.80;14.00;;;;;26.56;100.00;97758.88;6067049;28;96401;-58
2023/07/02 05:38:13;;;;;;;;;18.00;17.00;;;;;26.71;100.00;97751.78;6048895;28;98447;-58
2023/07/02 05:41:20;;;;;;;;;16.00;15.00;;;;;26.83;100.00;97756.44;6050627;28;96483;-58
2023/07/02 05:44:23;;;;;;;;;18.80;17.00;;;;;26.95;100.00;97773.78;6067773;28;96508;-59
2023/07/02 05:47:26;;;;;;;;;16.80;14.20;;;;;27.08;100.00;97761.47;6067588;28;96524;-59
2023/07/02 05:50:32;;;;;;;;;16.40;14.40;;;;;27.31;100.00;97764.44;6068772;28;96523;-61
2023/07/02 05:53:36;;;;;;;;;14.00;13.00;;;;;27.34;100.00;97755.41;6071824;28;96540;-58
2023/07/02 05:56:40;;;;;;;;;15.00;13.00;;;;;27.36;100.00;97761.38;6072698;28;96340;-58
2023/07/02 05:59:43;;;;;;;;;15.00;13.25;;;;;27.50;100.00;97764.53;6070096;28;98486;-59
2023/07/02 06:02:47;;;;;;;;;14.00;13.00;;;;;27.54;100.00;97770.94;6072925;28;97432;-58
2023/07/02 06:05:51;;;;;;;;;16.00;15.00;;;;;27.48;100.00;97752.97;6076611;28;96595;-58
2023/07/02 06:08:55;;;;;;;;;13.00;12.00;;;;;27.69;100.00;97760.19;6085951;28;96309;-58
2023/07/02 06:11:59;;;;;;;;;15.00;14.00;;;;;27.58;100.00;97749.69;6067151;28;99121;-61
2023/07/02 06:15:03;;;;;;;;;15.00;14.00;;;;;27.64;100.00;97766.81;6071665;28;96793;-61
2023/07/02 06:18:06;;;;;;;;;15.40;14.00;;;;;27.85;100.00;97763.72;6070957;28;96420;-61
2023/07/02 06:21:09;;;;;;;;;16.00;15.00;;;;;28.04;100.00;97769.28;6054964;28;96676;-61
2023/07/02 06:24:12;;;;;;;;;13.50;12.50;;;;;28.09;100.00;97768.19;6067751;28;96489;-58
2023/07/02 06:27:17;;;;;;;;;13.50;13.00;;;;;27.98;100.00;97766.00;6066258;28;96340;-59
2023/07/02 06:30:20;;;;;;;;;13.60;12.00;;;;;28.11;100.00;97776.94;6050156;28;96690;-59
2023/07/02 06:33:23;;;;;;;;;15.00;14.00;;;;;28.14;100.00;97771.53;6068476;28;96660;-59
2023/07/02 06:36:26;;;;;;;;;15.00;14.00;;;;;28.07;100.00;97767.75;6066196;28;99048;-59
2023/07/02 06:39:29;;;;;;;;;14.00;12.60;;;;;28.10;100.00;97778.91;6060467;28;96495;-59
2023/07/02 06:42:35;;;;;;;;;12.00;11.50;;;;;28.16;100.00;97776.69;6065140;28;96665;-59
2023/07/02 06:45:39;;;;;;;;;12.00;11.00;;;;;28.23;100.00;97774.88;6067576;28;96331;-61
2023/07/02 06:48:42;;;;;;;;;13.00;11.00;;;;;28.45;100.00;97776.09;6067384;28;96315;-61
2023/07/02 06:51:45;;;;;;;;;10.80;10.00;;;;;28.74;100.00;97771.94;6049588;28;96410;-61
2023/07/02 06:54:49;;;;;;;;;10.20;10.00;;;;;28.81;100.00;97772.88;6065216;28;96164;-61
2023/07/02 06:57:53;;;;;;;;;10.60;10.60;;;;;28.80;100.00;97782.38;6047690;28;97076;-61
2023/07/02 07:00:57;;;;;;;;;12.80;11.80;;;;;28.76;100.00;97787.06;6063221;28;96503;-61
2023/07/02 07:04:00;;;;;;;;;12.00;10.60;;;;;28.94;100.00;97773.50;6065153;28;96345;-58
2023/07/02 07:07:03;;;;;;;;;12.25;11.25;;;;;29.03;100.00;97790.72;6062884;28;97258;-61
2023/07/02 07:10:08;;;;;;;;;13.00;11.00;;;;;28.93;98.79;97788.53;6064818;28;96348;-61
2023/07/02 07:13:12;;;;;;;;;11.75;10.75;;;;;29.15;100.00;97795.28;6063815;28;96308;-61
2023/07/02 07:16:16;;;;;;;;;11.00;10.00;;;;;29.33;100.00;97803.94;6046834;28;96772;-59
2023/07/02 07:19:19;;;;;;;;;10.00;9.50;;;;;29.46;100.00;97808.16;6064372;28;96912;-61
2023/07/02 07:22:22;;;;;;;;;8.20;8.20;;;;;29.49;96.13;97799.88;6046411;28;99368;-61
2023/07/02 07:25:25;;;;;;;;;9.80;8.00;;;;;29.59;95.28;97815.09;6062863;28;97510;-61
2023/07/02 07:28:30;;;;;;;;;8.00;8.00;;;;;29.58;86.51;97819.03;6060660;28;96885;-61
2023/07/02 07:31:33;;;;;;;;;11.00;9.40;;;;;29.78;83.64;97816.97;6072508;28;96338;-61
2023/07/02 07:34:36;;;;;;;;;10.00;10.00;;;;;29.96;85.09;97818.06;6065975;28;96303;-58
2023/07/02 07:37:39;;;;;;;;;12.00;10.50;;;;;30.01;80.88;97818.53;6064548;28;96351;-58
2023/07/02 07:40:43;;;;;;;;;10.00;10.00;;;;;30.01;79.88;97809.41;6047571;28;98525;-58
2023/07/02 07:43:49;;;;;;;;;10.50;9.00;;;;;30.12;78.97;97838.97;6062702;28;96266;-59
2023/07/02 07:46:52;;;;;;;;;11.00;10.00;;;;;30.07;79.29;97828.16;6064779;28;96353;-58
2023/07/02 07:49:55;;;;;;;;;13.00;12.40;;;;;29.88;79.93;97833.00;6064543;28;98443;-58
2023/07/02 07:52:59;;;;;;;;;10.80;10.00;;;;;29.95;82.03;97838.72;6065023;28;96570;-58
2023/07/02 07:56:02;;;;;;;;;11.50;11.00;;;;;30.19;83.82;97843.84;6059938;28;96401;-59
2023/07/02 07:59:07;;;;;;;;;10.00;10.00;;;;;30.35;81.64;97844.44;6064750;28;98434;-59
2023/07/02 08:02:10;;;;;;;;;13.00;12.00;;;;;30.40;76.24;97849.66;6063521;28;98406;-58
2023/07/02 08:05:14;;;;;;;;;11.20;10.20;;;;;30.18;76.64;97842.22;6065677;28;96977;-58
2023/07/02 08:08:17;;;;;;;;;11.00;10.00;;;;;30.11;75.95;97848.47;6045191;28;98434;-58
2023/07/02 08:11:20;;;;;;;;;11.00;11.00;;;;;29.91;78.31;97851.75;6029646;28;97570;-59
2023/07/02 08:14:24;;;;;;;;;13.60;13.60;;;;;30.07;79.54;97850.41;6071557;28;97105;-58
2023/07/02 08:17:30;;;;;;;;;10.80;8.80;;;;;30.44;78.68;97849.72;6074791;28;96296;-59
2023/07/02 08:20:33;;;;;;;;;10.40;10.40;;;;;30.63;70.23;97846.03;6075116;28;96438;-58
2023/07/02 08:23:37;;;;;;;;;11.40;11.00;;;;;30.92;72.28;97847.97;6069825;28;100865;-58
2023/07/02 08:26:40;;;;;;;;;9.00;8.00;;;;;31.11;71.91;97847.00;6072797;28;96413;-58
2023/07/02 08:29:44;;;;;;;;;9.00;8.50;;;;;31.31;70.11;97845.59;6073227;28;96608;-58
2023/07/02 08:32:48;;;;;;;;;9.40;8.40;;;;;31.49;66.33;97857.72;6074129;28;96339;-58
2023/07/02 08:35:51;;;;;;;;;10.00;9.00;;;;;31.35;64.16;97847.25;6079378;28;98545;-59
2023/07/02 08:38:55;;;;;;;;;9.40;9.40;;;;;31.18;66.00;97838.72;6071255;28;96707;-58
2023/07/02 08:41:58;;;;;;;;;9.40;9.40;;;;;31.16;65.31;97847.44;6073696;28;96491;-58
2023/07/02 08:45:03;;;;;;;;;9.00;9.00;;;;;30.79;66.10;97852.19;6074301;28;96282;-59
2023/07/02 08:48:07;;;;;;;;;11.00;10.60;;;;;30.82;68.05;97860.56;6074716;28;96405;-58
2023/07/02 08:51:10;;;;;;;;;11.00;10.00;;;;;30.92;68.18;97862.69;6073728;28;97087;-59
2023/07/02 08:54:14;;;;;;;;;12.60;11.60;;;;;31.03;68.49;97867.59;6057135;28;98881;-59
2023/07/02 08:57:17;;;;;;;;;9.60;8.40;;;;;31.17;68.38;97859.38;6071316;28;96337;-58
2023/07/02 09:00:22;;;;;;;;;9.40;9.00;;;;;31.44;68.22;97852.47;6073660;28;96649;-58
2023/07/02 09:03:26;;;;;;;;;10.00;10.00;;;;;31.32;69.16;97850.81;6072790;28;96108;-58
2023/07/02 09:06:30;;;;;;;;;11.00;10.75;;;;;31.28;68.68;97849.94;6073088;28;96536;-58
2023/07/02 09:09:33;;;;;;;;;9.75;8.75;;;;;31.09;68.52;97852.94;6072692;28;99048;-58
2023/07/02 09:12:38;;;;;;;;;8.00;7.60;;;;;31.16;67.70;97861.38;6074083;28;96221;-58
2023/07/02 09:15:42;;;;;;;;;6.00;6.00;;;;;31.47;67.81;97853.72;6074188;28;96310;-58
2023/07/02 09:18:56;;;;;;;;;11.75;11.00;;;;;31.21;65.80;97863.00;6057089;28;96752;-58
2023/07/02 09:22:00;;;;;;;;;6.00;5.20;;;;;31.21;66.36;97868.56;6073341;28;96980;-59
2023/07/02 09:25:04;;;;;;;;;6.60;6.00;;;;;31.29;63.98;97865.47;6076742;28;96953;-59
2023/07/02 09:28:18;;;;;;;;;8.80;8.80;;;;;31.44;65.13;97879.53;6078228;28;96850;-58
2023/07/02 09:31:23;;;;;;;;;8.00;7.00;;;;;31.58;64.63;97880.50;6078454;28;96516;-59
2023/07/02 09:34:30;;;;;;;;;8.00;7.00;;;;;31.30;63.74;97881.00;6077486;28;96281;-58
2023/07/02 09:37:34;;;;;;;;;9.00;8.00;;;;;31.02;64.64;97877.13;6078485;28;96373;-61
2023/07/02 09:40:45;;;;;;;;;8.75;8.50;;;;;30.94;64.20;97887.31;6078269;28;96422;-59
2023/07/02 09:43:49;;;;;;;;;10.00;9.00;;;;;30.57;67.59;97880.91;6062455;28;96306;-59
2023/07/02 09:47:01;;;;;;;;;8.25;8.25;;;;;30.15;70.25;97887.47;6077115;28;98761;-59
2023/07/02 09:50:06;;;;;;;;;9.00;9.00;;;;;29.67;73.39;97887.03;6061106;28;96384;-59
2023/07/02 09:53:10;;;;;;;;;9.00;9.00;;;;;29.75;77.74;97879.66;6076926;28;96288;-58
2023/07/02 09:56:13;;;;;;;;;9.60;9.00;;;;;29.88;76.83;97892.16;6074226;28;96279;-58
2023/07/02 09:59:16;;;;;;;;;10.60;9.60;;;;;29.62;73.21;97898.47;6077055;28;96316;-58
2023/07/02 10:02:21;;;;;;;;;8.80;8.80;;;;;29.47;75.30;97904.94;6076934;28;96353;-58
2023/07/02 10:05:29;;;;;;;;;9.00;9.00;;;;;29.45;76.96;97896.19;6075981;28;96960;-58
2023/07/02 10:08:33;;;;;;;;;11.00;10.25;;;;;29.45;76.88;97895.38;6075059;28;96282;-61
2023/07/02 10:11:36;;;;;;;;;11.40;11.00;;;;;29.53;77.91;97889.59;6058572;28;97240;-61
2023/07/02 10:14:42;;;;;;;;;7.00;6.00;;;;;29.34;79.81;97902.72;6076147;28;96373;-61
2023/07/02 10:17:56;;;;;;;;;7.60;7.00;;;;;28.83;81.85;97892.59;6077685;28;96380;-61
2023/07/02 10:20:59;;;;;;;;;8.00;8.00;;;;;28.64;86.94;97886.22;6074665;28;99338;-61
2023/07/02 10:24:10;;;;;;;;;8.00;7.80;;;;;28.92;87.33;97878.53;6076032;28;96957;-59
2023/07/02 10:27:14;;;;;;;;;9.00;8.60;;;;;29.06;87.24;97894.63;6072883;28;99275;-60
2023/07/02 10:30:17;;;;;;;;;8.00;7.00;;;;;29.07;86.87;97905.38;6076816;28;96283;-60
2023/07/02 10:33:21;;;;;;;;;7.00;7.00;;;;;29.60;90.02;97889.72;6075852;28;96908;-60
2023/07/02 10:36:26;;;;;;;;;10.40;10.40;;;;;30.21;84.15;97885.94;6059961;28;96720;-58
2023/07/02 10:39:30;;;;;;;;;8.00;8.00;;;;;30.33;82.88;97882.16;6076764;28;96295;-58
2023/07/02 10:42:34;;;;;;;;;6.50;6.00;;;;;30.40;81.60;97905.28;6076014;28;96513;-58
2023/07/02 10:45:37;;;;;;;;;6.00;6.00;;;;;29.94;83.73;97909.34;6075706;28;96816;-58
2023/07/02 10:48:52;;;;;;;;;6.25;6.00;;;;;29.86;82.98;97900.06;6072544;28;96369;-58
2023/07/02 10:51:59;;;;;;;;;9.00;8.60;;;;;30.04;85.42;97901.19;6075424;28;96300;-58
2023/07/02 10:55:02;;;;;;;;;8.50;7.50;;;;;30.13;82.88;97903.69;6072645;28;96459;-61
2023/07/02 10:58:06;;;;;;;;;9.60;9.00;;;;;30.39;84.17;97920.38;6072849;28;96943;-58
2023/07/02 11:01:09;;;;;;;;;9.25;9.00;;;;;30.47;82.86;97912.97;6070660;28;96501;-59
2023/07/02 11:04:16;;;;;;;;;6.00;6.00;;;;;30.45;84.97;97901.38;6073777;28;96863;-58
2023/07/02 11:07:23;;;;;;;;;8.60;8.60;;;;;30.47;82.09;97897.06;6073451;28;97229;-58
2023/07/02 11:10:27;;;;;;;;;8.40;8.40;;;;;30.22;84.76;97892.31;6072871;28;96935;-58
2023/07/02 11:13:30;;;;;;;;;8.00;8.00;;;;;30.17;85.76;97896.22;6075832;28;96467;-58
2023/07/02 11:16:35;;;;;;;;;8.00;8.00;;;;;30.18;86.20;97892.25;6059843;28;96692;-59
2023/07/02 11:19:42;;;;;;;;;7.75;7.75;;;;;30.47;83.35;97888.75;6078417;28;97037;-58
2023/07/02 11:22:46;;;;;;;;;8.20;7.00;;;;;30.69;80.92;97891.81;6074656;28;96203;-60
2023/07/02 11:25:57;;;;;;;;;9.00;9.00;;;;;30.74;81.10;97888.69;6074331;28;96380;-61
2023/07/02 11:29:00;;;;;;;;;7.00;6.00;;;;;30.75;79.11;97902.22;6075453;28;96184;-59
2023/07/02 11:32:07;;;;;;;;;6.40;6.00;;;;;30.67;81.16;97886.63;6073826;28;96263;-59
2023/07/02 11:35:11;;;;;;;;;5.50;5.50;;;;;30.64;82.38;97884.59;6074784;28;96659;-58
2023/07/02 11:38:14;;;;;;;;;6.00;6.00;;;;;30.96;81.74;97887.75;6072288;28;96402;-58
2023/07/02 11:41:18;;;;;;;;;6.80;6.80;;;;;31.25;79.25;97892.50;6074561;28;96516;-58
2023/07/02 11:44:24;;;;;;;;;16.20;14.20;;;;;31.24;76.98;97892.88;6074153;28;96758;-58
2023/07/02 11:47:27;;;;;;;;;48.00;38.00;;;;;31.44;78.39;97888.69;6073257;28;96275;-58
2023/07/02 11:50:32;;;;;;;;;27.60;24.60;;;;;31.42;78.04;97880.72;6073346;28;97007;-58
2023/07/02 11:53:35;;;;;;;;;13.20;13.00;;;;;31.47;72.30;97879.59;6051632;28;97021;-58
2023/07/02 11:56:38;;;;;;;;;9.00;8.60;;;;;31.49;71.26;97862.47;6073685;28;96295;-58
2023/07/02 11:59:42;;;;;;;;;9.80;9.00;;;;;31.62;76.80;97872.97;6074557;28;96324;-58
2023/07/02 12:02:45;;;;;;;;;11.67;10.67;;;;;31.77;70.92;97865.53;6074016;28;96728;-58
2023/07/02 12:05:50;;;;;;;;;10.00;10.00;;;;;31.96;72.83;97861.72;6073718;28;96904;-58
2023/07/02 12:08:53;;;;;;;;;6.00;6.00;;;;;31.89;68.37;97872.78;6074741;28;96346;-58
2023/07/02 12:11:56;;;;;;;;;8.50;8.50;;;;;31.68;70.59;97860.28;6074303;28;96299;-58
2023/07/02 12:14:59;;;;;;;;;6.00;6.00;;;;;31.43;71.34;97867.59;6075324;28;96266;-58
2023/07/02 12:18:02;;;;;;;;;5.00;5.00;;;;;31.80;72.72;97860.00;6075456;28;96400;-58
2023/07/02 12:21:07;;;;;;;;;6.00;6.00;;;;;31.23;70.03;97855.06;6074479;28;96962;-58
2023/07/02 12:24:10;;;;;;;;;6.40;6.00;;;;;31.34;70.55;97879.06;6074869;28;96923;-58
2023/07/02 12:27:14;;;;;;;;;7.00;7.00;;;;;31.38;70.80;97867.94;6054201;28;98417;-58
2023/07/02 12:30:18;;;;;;;;;6.20;6.00;;;;;31.18;73.80;97869.34;6050656;28;96263;-58
2023/07/02 12:33:21;;;;;;;;;10.00;9.00;;;;;31.48;74.00;97866.44;6051329;28;96989;-58
2023/07/02 12:36:26;;;;;;;;;9.00;8.00;;;;;31.62;70.12;97849.91;6051263;28;96408;-58
2023/07/02 12:39:29;;;;;;;;;8.00;8.00;;;;;31.90;66.43;97850.13;6051427;28;96346;-58
2023/07/02 12:42:32;;;;;;;;;7.00;6.25;;;;;31.82;64.40;97840.09;6051325;28;96397;-58
2023/07/02 12:45:35;;;;;;;;;5.75;5.75;;;;;31.96;63.87;97834.59;6082669;28;96108;-58
2023/07/02 12:48:38;;;;;;;;;7.00;7.00;;;;;32.05;64.50;97851.03;6051509;28;96850;-58
2023/07/02 12:51:43;;;;;;;;;9.50;9.00;;;;;31.80;64.19;97834.91;6051588;28;96304;-58
2023/07/02 12:54:46;;;;;;;;;4.80;4.80;;;;;31.88;62.75;97843.31;6081989;28;96747;-58
2023/07/02 12:57:49;;;;;;;;;7.00;7.00;;;;;31.92;64.61;97822.63;6050251;28;96382;-58
2023/07/02 13:00:52;;;;;;;;;7.60;7.60;;;;;32.22;65.12;97840.00;6081836;28;96895;-58
2023/07/02 13:03:56;;;;;;;;;8.00;8.00;;;;;31.77;63.11;97844.03;6051416;28;96669;-58
2023/07/02 13:07:00;;;;;;;;;7.50;7.00;;;;;31.40;65.33;97846.88;6057311;28;96752;-58
2023/07/02 13:10:04;;;;;;;;;7.00;7.00;;;;;30.82;69.88;97843.88;6074239;28;96104;-59
2023/07/02 13:13:07;;;;;;;;;7.00;5.60;;;;;30.77;70.31;97848.97;6073103;28;96702;-58
2023/07/02 13:16:25;;;;;;;;;9.00;7.00;;;;;30.84;73.67;97835.13;6056566;28;98405;-58
2023/07/02 13:19:28;;;;;;;;;6.40;6.40;;;;;31.11;73.56;97836.66;6073452;28;96836;-58
2023/07/02 13:22:32;;;;;;;;;8.00;8.00;;;;;31.40;74.47;97843.31;6073733;28;96449;-60
2023/07/02 13:25:35;;;;;;;;;10.40;9.00;;;;;31.61;73.58;97854.69;6072306;28;98495;-60
2023/07/02 13:28:38;;;;;;;;;6.00;6.00;;;;;31.82;72.03;97838.09;6073721;28;96338;-59
2023/07/02 13:31:42;;;;;;;;;7.00;7.00;;;;;32.12;69.36;97848.28;6071179;28;96239;-60
2023/07/02 13:34:45;;;;;;;;;7.00;6.25;;;;;31.88;65.07;97848.88;6073551;28;96877;-60
2023/07/02 13:37:49;;;;;;;;;7.00;7.00;;;;;31.71;65.63;97856.75;6073260;28;96477;-60
2023/07/02 13:40:53;;;;;;;;;6.40;6.40;;;;;31.60;69.36;97849.47;6057100;28;98396;-60
2023/07/02 13:43:56;;;;;;;;;4.00;4.00;;;;;31.78;71.53;97830.91;6057285;28;96877;-60
2023/07/02 13:46:59;;;;;;;;;5.75;5.75;;;;;31.98;67.48;97837.00;6073391;28;96443;-60
2023/07/02 13:50:03;;;;;;;;;7.00;6.80;;;;;31.60;64.82;97839.13;6071128;28;96279;-60
2023/07/02 13:53:09;;;;;;;;;6.00;6.00;;;;;31.26;66.40;97834.81;6056299;28;98567;-60
2023/07/02 13:56:12;;;;;;;;;8.00;7.00;;;;;30.97;66.50;97855.97;6072904;28;96322;-60
2023/07/02 13:59:18;;;;;;;;;7.40;7.40;;;;;30.38;69.71;97876.25;6068303;28;96299;-63
2023/07/02 14:02:21;;;;;;;;;5.00;5.00;;;;;30.24;70.27;97887.19;6066443;28;96312;-62
2023/07/02 14:05:25;;;;;;;;;2.80;2.80;;;;;29.78;71.08;97898.34;6063627;28;96266;-62
2023/07/02 14:08:28;;;;;;;;;5.00;5.00;;;;;29.64;72.68;97912.00;6064084;28;96180;-62